Terminal Aerodrome Forecast
Issued by NWS Louisville, KY

Home | Current Version | Previous Version | Text Only | Print | Product List | Glossary On
Versions: 1 2 3 4 5 6 7 8 9 10 11 12 13 14 15 16 17
000
FTUS43 KLMK 191400 AAA
TAFBWG
TAF AMD
KBWG 191456Z 1915/2012 06007KT P6SM VCSH BKN006 OVC015
     FM191700 06007KT P6SM SCT010 BKN020
     FM191900 06007KT P6SM SCT025 BKN035
     FM200900 VRB03KT 5SM BR SCT015 BKN025=

USA.gov is the U.S. government's official web portal to all federal, state and local government web resources and services.